Impacts METAR Board
IDs:

KLGA - New York/La Guardia, NY, US

Updated at: 1100 UTC 09 Jul 2020
Potential Impact None Slight Moderate High
Time 08/23Z 09/00Z 09/01Z 09/02Z 09/03Z 09/04Z 09/05Z 09/06Z 09/07Z 09/08Z 09/09Z 09/10Z 09/11Z
Temp81 82 80 80 80 80 80 79 79 78 78 78 79
Dewpt70 71 71 71 72 72 70 68 69 70 70 70 71
Altim29.94 29.94 29.94 29.96 29.96 29.95 29.96 29.96 29.96 29.96 29.97 29.98 29.99
VIS10 10 10 10 10 10 10 10 10 10 10 10 10
CIG140 170 170 250 250 250 250 250 250 -- -- 250 --
CoverOVCBKNBKNBKNBKNBKNBKNBKNBKNSCTSCTBKNFEW
FltCatVFRVFRVFRVFRVFRVFRVFRVFRVFRVFRVFRVFRVFR
WX--------------------------
WDir190180180150180190190220210220220200230
WSpd8 9 7 4 7 11 5 7 5 7 4 6 4
WGst-- -- -- -- -- -- -- -- -- -- -- -- --
Raw hourly METARs
KLGA 082251Z 19008KT 10SM FEW050 BKN140 OVC250 27/21 A2994 RMK AO2 RAE2157 SLP138 P0000 T02720211
KLGA 082351Z 18009KT 10SM FEW050 BKN170 BKN250 28/22 A2994 RMK AO2 SLP139 60001 T02780217 10306 20272 55011
KLGA 090051Z 18007KT 10SM FEW050 BKN170 BKN250 27/22 A2994 RMK AO2 SLP140 T02670217
KLGA 090151Z 15004KT 10SM FEW045 SCT170 BKN250 27/22 A2996 RMK AO2 SLP146 T02670217
KLGA 090251Z 18007KT 10SM FEW180 BKN250 27/22 A2996 RMK AO2 SLP144 T02670222 50005
KLGA 090351Z 19011KT 10SM SCT200 BKN250 27/22 A2995 RMK AO2 SLP143 T02670222
KLGA 090451Z 19005KT 10SM FEW180 BKN250 27/21 A2996 RMK AO2 SLP146 T02670211 403170250
KLGA 090551Z 22007KT 10SM FEW180 BKN250 26/20 A2996 RMK AO2 SLP144 T02610200 10272 20261 50000
KLGA 090651Z 21005KT 10SM BKN250 26/21 A2996 RMK AO2 SLP143 T02610206
KLGA 090751Z 22007KT 10SM SCT250 26/21 A2996 RMK AO2 SLP144 T02560211
KLGA 090851Z 22004KT 10SM FEW200 SCT250 26/21 A2997 RMK AO2 SLP147 T02560211 53003
KLGA 090951Z 20006KT 10SM SCT200 BKN250 26/21 A2998 RMK AO2 SLP150 T02560211
KLGA 091051Z 23004KT 10SM FEW007 FEW250 26/22 A2999 RMK AO2 SLP155 T02610217



Page loaded:  11:20 UTC  |   04:20 AM Pacific  |   05:20 AM Mountain  |   06:20 AM Central  |   07:20 AM Eastern

 

ADVISORIES

FORECASTS

FORECASTS

OBSERVATIONS

USER TOOLS

ABOUT US